Somers, Connecticut
Current Conditions -  °F | °C
As of 12:51 AM on Wednesday 26 Nov 2014 (Local Time) from KBDL Reporting Station
Overcast Overcast  
Wind Chill: 39°   Ceiling: 17000
Heat Index: 43°   Visibility: 10mi
Dew Point: 30°   Wind: 7mph
Humidity: 60%   Direction: 290°WNW
Pressure: 30.15"   Gusts: NA
Location:  41.99°N, 72.45°W
Report Text: KBDL 260551Z 29006KT 10SM BKN170 OVC220 06/M01 A3015 RMK AO2 SLP209 T00611011 10089 20050 51020
Loading
Personal Weather Stations






























Interactive Weather Map New forecast layout! Learn more

10-Day Weather Forecast

Advertisements
Track Severe Weather on mobile